sensor_id;sensor_type;location;lat;lon;timestamp;pressure;altitude;pressure_sealevel;temperature;humidity
5996;BME280;3026;53.612;7.278;2023-04-30T00:01:26;102338.63;;;6.47;100.00
5996;BME280;3026;53.612;7.278;2023-04-30T00:03:53;102331.72;;;6.42;100.00
5996;BME280;3026;53.612;7.278;2023-04-30T00:06:20;102333.66;;;6.40;100.00
5996;BME280;3026;53.612;7.278;2023-04-30T00:08:46;102341.06;;;6.38;100.00
5996;BME280;3026;53.612;7.278;2023-04-30T00:11:13;102344.75;;;6.37;100.00
5996;BME280;3026;53.612;7.278;2023-04-30T00:13:40;102341.25;;;6.35;100.00
5996;BME280;3026;53.612;7.278;2023-04-30T00:16:07;102345.16;;;6.31;100.00
5996;BME280;3026;53.612;7.278;2023-04-30T00:18:36;102343.41;;;6.30;100.00
5996;BME280;3026;53.612;7.278;2023-04-30T00:21:03;102340.94;;;6.27;100.00
5996;BME280;3026;53.612;7.278;2023-04-30T00:23:30;102338.44;;;6.24;100.00
5996;BME280;3026;53.612;7.278;2023-04-30T00:25:57;102336.91;;;6.20;100.00
5996;BME280;3026;53.612;7.278;2023-04-30T00:28:24;102338.88;;;6.18;100.00
5996;BME280;3026;53.612;7.278;2023-04-30T00:30:50;102342.66;;;6.16;100.00
5996;BME280;3026;53.612;7.278;2023-04-30T00:33:17;102337.56;;;6.11;100.00
5996;BME280;3026;53.612;7.278;2023-04-30T00:35:45;102346.88;;;6.07;100.00
5996;BME280;3026;53.612;7.278;2023-04-30T00:38:12;102331.03;;;6.01;100.00
5996;BME280;3026;53.612;7.278;2023-04-30T00:40:39;102345.78;;;5.97;100.00
5996;BME280;3026;53.612;7.278;2023-04-30T00:43:07;102342.31;;;5.95;100.00
5996;BME280;3026;53.612;7.278;2023-04-30T00:45:34;102348.03;;;5.90;100.00
5996;BME280;3026;53.612;7.278;2023-04-30T00:48:01;102344.66;;;5.86;100.00
5996;BME280;3026;53.612;7.278;2023-04-30T00:50:28;102343.13;;;5.82;100.00
5996;BME280;3026;53.612;7.278;2023-04-30T00:52:56;102352.22;;;5.81;100.00
5996;BME280;3026;53.612;7.278;2023-04-30T00:55:24;102342.47;;;5.79;100.00
5996;BME280;3026;53.612;7.278;2023-04-30T00:57:52;102352.41;;;5.78;100.00
5996;BME280;3026;53.612;7.278;2023-04-30T01:00:19;102358.03;;;5.75;100.00
5996;BME280;3026;53.612;7.278;2023-04-30T01:02:46;102345.47;;;5.74;100.00
5996;BME280;3026;53.612;7.278;2023-04-30T01:05:13;102341.38;;;5.69;100.00
5996;BME280;3026;53.612;7.278;2023-04-30T01:07:40;102351.53;;;5.65;100.00
5996;BME280;3026;53.612;7.278;2023-04-30T01:10:12;102354.44;;;5.62;100.00
5996;BME280;3026;53.612;7.278;2023-04-30T01:12:45;102359.84;;;5.62;100.00
5996;BME280;3026;53.612;7.278;2023-04-30T01:15:18;102358.34;;;5.58;100.00
5996;BME280;3026;53.612;7.278;2023-04-30T01:17:54;102351.25;;;5.55;100.00
5996;BME280;3026;53.612;7.278;2023-04-30T01:20:22;102345.22;;;5.52;100.00
5996;BME280;3026;53.612;7.278;2023-04-30T01:22:55;102349.00;;;5.49;100.00
5996;BME280;3026;53.612;7.278;2023-04-30T01:25:43;102341.09;;;5.46;100.00
5996;BME280;3026;53.612;7.278;2023-04-30T01:28:19;102353.94;;;5.43;100.00
5996;BME280;3026;53.612;7.278;2023-04-30T01:30:47;102351.44;;;5.40;100.00
5996;BME280;3026;53.612;7.278;2023-04-30T01:33:14;102354.16;;;5.40;100.00
5996;BME280;3026;53.612;7.278;2023-04-30T01:38:54;102361.88;;;5.32;100.00
5996;BME280;3026;53.612;7.278;2023-04-30T01:41:28;102348.56;;;5.28;100.00
5996;BME280;3026;53.612;7.278;2023-04-30T01:44:11;102360.25;;;5.29;100.00
5996;BME280;3026;53.612;7.278;2023-04-30T01:46:46;102364.25;;;5.23;100.00
5996;BME280;3026;53.612;7.278;2023-04-30T01:49:26;102368.91;;;5.21;100.00
5996;BME280;3026;53.612;7.278;2023-04-30T01:52:00;102372.53;;;5.20;100.00
5996;BME280;3026;53.612;7.278;2023-04-30T01:54:37;102369.09;;;5.18;100.00
5996;BME280;3026;53.612;7.278;2023-04-30T01:57:13;102365.63;;;5.16;100.00
5996;BME280;3026;53.612;7.278;2023-04-30T01:59:44;102362.16;;;5.14;100.00
5996;BME280;3026;53.612;7.278;2023-04-30T02:02:12;102368.63;;;5.12;100.00
5996;BME280;3026;53.612;7.278;2023-04-30T02:04:38;102377.78;;;5.09;100.00
5996;BME280;3026;53.612;7.278;2023-04-30T02:07:05;102375.28;;;5.06;100.00
5996;BME280;3026;53.612;7.278;2023-04-30T02:09:32;102380.91;;;5.03;100.00
5996;BME280;3026;53.612;7.278;2023-04-30T02:11:59;102381.22;;;4.98;100.00
5996;BME280;3026;53.612;7.278;2023-04-30T02:14:26;102382.38;;;4.94;100.00
5996;BME280;3026;53.612;7.278;2023-04-30T02:16:54;102376.28;;;4.91;100.00
5996;BME280;3026;53.612;7.278;2023-04-30T02:19:21;102376.50;;;4.88;100.00
5996;BME280;3026;53.612;7.278;2023-04-30T02:21:48;102379.19;;;4.88;100.00
5996;BME280;3026;53.612;7.278;2023-04-30T02:24:15;102380.16;;;4.87;100.00
5996;BME280;3026;53.612;7.278;2023-04-30T02:26:41;102382.19;;;4.83;100.00
5996;BME280;3026;53.612;7.278;2023-04-30T02:29:08;102366.06;;;4.82;100.00
5996;BME280;3026;53.612;7.278;2023-04-30T02:31:35;102368.09;;;4.78;100.00
5996;BME280;3026;53.612;7.278;2023-04-30T02:34:03;102368.22;;;4.77;100.00
5996;BME280;3026;53.612;7.278;2023-04-30T02:36:30;102375.56;;;4.75;100.00
5996;BME280;3026;53.612;7.278;2023-04-30T02:39:00;102374.00;;;4.71;100.00
5996;BME280;3026;53.612;7.278;2023-04-30T02:41:27;102375.06;;;4.68;100.00
5996;BME280;3026;53.612;7.278;2023-04-30T02:43:54;102365.41;;;4.64;100.00
5996;BME280;3026;53.612;7.278;2023-04-30T02:46:21;102360.09;;;4.62;100.00
5996;BME280;3026;53.612;7.278;2023-04-30T02:48:48;102371.09;;;4.59;100.00
5996;BME280;3026;53.612;7.278;2023-04-30T02:51:16;102374.88;;;4.57;100.00
5996;BME280;3026;53.612;7.278;2023-04-30T02:53:45;102376.91;;;4.53;100.00
5996;BME280;3026;53.612;7.278;2023-04-30T02:56:12;102375.16;;;4.52;100.00
5996;BME280;3026;53.612;7.278;2023-04-30T02:58:39;102366.47;;;4.47;100.00
5996;BME280;3026;53.612;7.278;2023-04-30T03:01:06;102368.41;;;4.45;100.00
5996;BME280;3026;53.612;7.278;2023-04-30T03:03:32;102364.94;;;4.43;100.00
5996;BME280;3026;53.612;7.278;2023-04-30T03:05:59;102368.75;;;4.39;100.00
5996;BME280;3026;53.612;7.278;2023-04-30T03:08:27;102376.09;;;4.37;100.00
5996;BME280;3026;53.612;7.278;2023-04-30T03:10:54;102373.41;;;4.37;100.00
5996;BME280;3026;53.612;7.278;2023-04-30T03:13:21;102374.56;;;4.33;100.00
5996;BME280;3026;53.612;7.278;2023-04-30T03:15:56;102369.34;;;4.30;100.00
5996;BME280;3026;53.612;7.278;2023-04-30T03:18:22;102373.19;;;4.26;100.00
5996;BME280;3026;53.612;7.278;2023-04-30T03:20:49;102360.84;;;4.22;100.00
5996;BME280;3026;53.612;7.278;2023-04-30T03:23:16;102367.03;;;4.24;100.00
5996;BME280;3026;53.612;7.278;2023-04-30T03:25:44;102369.91;;;4.21;100.00
5996;BME280;3026;53.612;7.278;2023-04-30T03:28:11;102376.19;;;4.21;100.00
5996;BME280;3026;53.612;7.278;2023-04-30T03:30:38;102376.19;;;4.21;100.00
5996;BME280;3026;53.612;7.278;2023-04-30T03:33:05;102376.28;;;4.20;100.00
5996;BME280;3026;53.612;7.278;2023-04-30T03:35:32;102390.75;;;4.19;100.00
5996;BME280;3026;53.612;7.278;2023-04-30T03:37:59;102385.44;;;4.17;100.00
5996;BME280;3026;53.612;7.278;2023-04-30T03:40:26;102368.56;;;4.14;100.00
5996;BME280;3026;53.612;7.278;2023-04-30T03:42:54;102383.00;;;4.13;100.00
5996;BME280;3026;53.612;7.278;2023-04-30T03:45:21;102377.81;;;4.09;100.00
5996;BME280;3026;53.612;7.278;2023-04-30T03:47:48;102381.47;;;4.08;100.00
5996;BME280;3026;53.612;7.278;2023-04-30T03:50:17;102387.94;;;4.06;100.00
5996;BME280;3026;53.612;7.278;2023-04-30T03:52:44;102393.41;;;4.04;100.00
5996;BME280;3026;53.612;7.278;2023-04-30T03:55:13;102387.22;;;4.02;100.00
5996;BME280;3026;53.612;7.278;2023-04-30T03:57:40;102387.22;;;4.02;100.00
5996;BME280;3026;53.612;7.278;2023-04-30T04:00:11;102387.22;;;4.02;100.00
5996;BME280;3026;53.612;7.278;2023-04-30T04:02:39;102387.41;;;3.99;100.00
5996;BME280;3026;53.612;7.278;2023-04-30T04:05:06;102396.47;;;3.98;100.00
5996;BME280;3026;53.612;7.278;2023-04-30T04:07:33;102394.75;;;3.97;100.00
5996;BME280;3026;53.612;7.278;2023-04-30T04:10:00;102394.94;;;3.94;100.00
5996;BME280;3026;53.612;7.278;2023-04-30T04:12:27;102396.84;;;3.92;100.00
5996;BME280;3026;53.612;7.278;2023-04-30T04:14:54;102398.75;;;3.90;100.00
5996;BME280;3026;53.612;7.278;2023-04-30T04:17:22;102400.69;;;3.88;100.00
5996;BME280;3026;53.612;7.278;2023-04-30T04:19:49;102400.50;;;3.91;100.00
5996;BME280;3026;53.612;7.278;2023-04-30T04:22:16;102398.75;;;3.90;100.00
5996;BME280;3026;53.612;7.278;2023-04-30T04:24:42;102394.31;;;3.89;100.00
5996;BME280;3026;53.612;7.278;2023-04-30T04:27:10;102405.13;;;3.89;100.00
5996;BME280;3026;53.612;7.278;2023-04-30T04:29:36;102402.44;;;3.89;100.00
5996;BME280;3026;53.612;7.278;2023-04-30T04:32:03;102407.81;;;3.89;100.00
5996;BME280;3026;53.612;7.278;2023-04-30T04:34:31;102406.94;;;3.89;100.00
5996;BME280;3026;53.612;7.278;2023-04-30T04:36:58;102401.47;;;3.90;100.00
5996;BME280;3026;53.612;7.278;2023-04-30T04:39:25;102403.97;;;3.93;100.00
5996;BME280;3026;53.612;7.278;2023-04-30T04:41:52;102411.13;;;3.94;100.00
5996;BME280;3026;53.612;7.278;2023-04-30T04:44:19;102409.22;;;3.96;100.00
5996;BME280;3026;53.612;7.278;2023-04-30T04:46:46;102407.47;;;3.95;100.00
5996;BME280;3026;53.612;7.278;2023-04-30T04:49:14;102418.06;;;3.98;100.00
5996;BME280;3026;53.612;7.278;2023-04-30T04:51:42;102419.81;;;3.99;100.00
5996;BME280;3026;53.612;7.278;2023-04-30T04:54:09;102417.88;;;4.01;100.00
5996;BME280;3026;53.612;7.278;2023-04-30T04:56:35;102409.78;;;4.01;100.00
5996;BME280;3026;53.612;7.278;2023-04-30T04:59:02;102431.81;;;4.09;100.00
5996;BME280;3026;53.612;7.278;2023-04-30T05:01:29;102423.41;;;4.14;100.00
5996;BME280;3026;53.612;7.278;2023-04-30T05:03:56;102419.59;;;4.18;100.00
5996;BME280;3026;53.612;7.278;2023-04-30T05:06:22;102423.72;;;4.24;100.00
5996;BME280;3026;53.612;7.278;2023-04-30T05:08:51;102430.50;;;4.31;100.00
5996;BME280;3026;53.612;7.278;2023-04-30T05:11:17;102434.66;;;4.36;100.00
5996;BME280;3026;53.612;7.278;2023-04-30T05:13:44;102433.41;;;4.42;100.00
5996;BME280;3026;53.612;7.278;2023-04-30T05:16:11;102433.03;;;4.48;100.00
5996;BME280;3026;53.612;7.278;2023-04-30T05:18:38;102428.13;;;4.55;100.00
5996;BME280;3026;53.612;7.278;2023-04-30T05:21:05;102433.22;;;4.59;100.00
5996;BME280;3026;53.612;7.278;2023-04-30T05:23:32;102436.53;;;4.64;100.00
5996;BME280;3026;53.612;7.278;2023-04-30T05:26:00;102430.63;;;4.72;100.00
5996;BME280;3026;53.612;7.278;2023-04-30T05:28:28;102436.53;;;4.79;100.00
5996;BME280;3026;53.612;7.278;2023-04-30T05:30:55;102431.59;;;4.85;100.00
5996;BME280;3026;53.612;7.278;2023-04-30T05:33:21;102430.16;;;4.94;100.00
5996;BME280;3026;53.612;7.278;2023-04-30T05:35:48;102438.44;;;5.05;100.00
5996;BME280;3026;53.612;7.278;2023-04-30T05:38:15;102439.81;;;5.12;100.00
5996;BME280;3026;53.612;7.278;2023-04-30T05:40:42;102438.16;;;5.24;100.00
5996;BME280;3026;53.612;7.278;2023-04-30T05:43:10;102442.97;;;5.33;100.00
5996;BME280;3026;53.612;7.278;2023-04-30T05:45:36;102439.53;;;5.44;100.00
5996;BME280;3026;53.612;7.278;2023-04-30T05:48:03;102444.34;;;5.53;100.00
5996;BME280;3026;53.612;7.278;2023-04-30T05:50:30;102444.59;;;5.63;100.00
5996;BME280;3026;53.612;7.278;2023-04-30T05:52:57;102451.16;;;5.73;100.00
5996;BME280;3026;53.612;7.278;2023-04-30T05:55:24;102447.94;;;5.80;100.00
5996;BME280;3026;53.612;7.278;2023-04-30T05:57:51;102458.00;;;5.93;100.00
5996;BME280;3026;53.612;7.278;2023-04-30T06:00:19;102451.75;;;6.05;100.00
5996;BME280;3026;53.612;7.278;2023-04-30T06:02:46;102451.13;;;6.14;100.00
5996;BME280;3026;53.612;7.278;2023-04-30T06:05:13;102442.44;;;6.22;100.00
5996;BME280;3026;53.612;7.278;2023-04-30T06:07:39;102453.53;;;6.31;100.00
5996;BME280;3026;53.612;7.278;2023-04-30T06:10:07;102449.22;;;6.41;100.00
5996;BME280;3026;53.612;7.278;2023-04-30T06:12:34;102446.84;;;6.50;100.00
5996;BME280;3026;53.612;7.278;2023-04-30T06:15:01;102449.84;;;6.58;100.00
5996;BME280;3026;53.612;7.278;2023-04-30T06:17:29;102442.06;;;6.66;100.00
5996;BME280;3026;53.612;7.278;2023-04-30T06:19:56;102463.09;;;6.75;100.00
5996;BME280;3026;53.612;7.278;2023-04-30T06:22:26;102466.16;;;6.83;100.00
5996;BME280;3026;53.612;7.278;2023-04-30T06:24:53;102467.31;;;6.92;100.00
5996;BME280;3026;53.612;7.278;2023-04-30T06:27:22;102459.63;;;6.98;100.00
5996;BME280;3026;53.612;7.278;2023-04-30T06:29:48;102457.25;;;7.07;100.00
5996;BME280;3026;53.612;7.278;2023-04-30T06:32:15;102457.66;;;7.13;100.00
5996;BME280;3026;53.612;7.278;2023-04-30T06:34:43;102463.50;;;7.20;100.00
5996;BME280;3026;53.612;7.278;2023-04-30T06:37:10;102459.25;;;7.28;100.00
5996;BME280;3026;53.612;7.278;2023-04-30T06:39:37;102462.03;;;7.40;100.00
5996;BME280;3026;53.612;7.278;2023-04-30T06:42:04;102457.78;;;7.48;100.00
5996;BME280;3026;53.612;7.278;2023-04-30T06:44:31;102467.97;;;7.57;100.00
5996;BME280;3026;53.612;7.278;2023-04-30T06:46:57;102472.72;;;7.67;100.00
5996;BME280;3026;53.612;7.278;2023-04-30T06:49:24;102471.06;;;7.77;100.00
5996;BME280;3026;53.612;7.278;2023-04-30T06:51:52;102461.56;;;7.82;100.00
5996;BME280;3026;53.612;7.278;2023-04-30T06:54:20;102475.09;;;7.95;100.00
5996;BME280;3026;53.612;7.278;2023-04-30T06:56:48;102468.22;;;8.02;100.00
5996;BME280;3026;53.612;7.278;2023-04-30T06:59:15;102470.25;;;8.11;100.00
5996;BME280;3026;53.612;7.278;2023-04-30T07:01:42;102476.59;;;8.23;100.00
5996;BME280;3026;53.612;7.278;2023-04-30T07:04:08;102476.72;;;8.33;100.00
5996;BME280;3026;53.612;7.278;2023-04-30T07:06:36;102475.19;;;8.41;100.00
5996;BME280;3026;53.612;7.278;2023-04-30T07:09:04;102480.78;;;8.51;100.00
5996;BME280;3026;53.612;7.278;2023-04-30T07:11:31;102481.56;;;8.64;100.00
5996;BME280;3026;53.612;7.278;2023-04-30T07:13:58;102484.28;;;8.75;100.00
5996;BME280;3026;53.612;7.278;2023-04-30T07:16:24;102488.41;;;8.81;100.00
5996;BME280;3026;53.612;7.278;2023-04-30T07:18:52;102480.47;;;8.89;100.00
5996;BME280;3026;53.612;7.278;2023-04-30T07:21:18;102479.16;;;8.95;100.00
5996;BME280;3026;53.612;7.278;2023-04-30T07:23:46;102484.06;;;9.01;100.00
5996;BME280;3026;53.612;7.278;2023-04-30T07:26:14;102487.31;;;9.06;100.00
5996;BME280;3026;53.612;7.278;2023-04-30T07:28:41;102485.81;;;9.13;100.00
5996;BME280;3026;53.612;7.278;2023-04-30T07:31:08;102493.00;;;9.25;100.00
5996;BME280;3026;53.612;7.278;2023-04-30T07:33:34;102485.59;;;9.27;100.00
5996;BME280;3026;53.612;7.278;2023-04-30T07:36:01;102493.97;;;9.35;100.00
5996;BME280;3026;53.612;7.278;2023-04-30T07:38:28;102488.78;;;9.32;100.00
5996;BME280;3026;53.612;7.278;2023-04-30T07:40:55;102490.16;;;9.38;100.00
5996;BME280;3026;53.612;7.278;2023-04-30T07:43:23;102488.06;;;9.42;100.00
5996;BME280;3026;53.612;7.278;2023-04-30T07:45:50;102483.94;;;9.47;100.00
5996;BME280;3026;53.612;7.278;2023-04-30T07:48:18;102483.59;;;9.52;100.00
5996;BME280;3026;53.612;7.278;2023-04-30T07:50:47;102488.16;;;9.51;100.00
5996;BME280;3026;53.612;7.278;2023-04-30T07:53:14;102486.28;;;9.63;100.00
5996;BME280;3026;53.612;7.278;2023-04-30T07:55:40;102495.31;;;9.75;100.00
5996;BME280;3026;53.612;7.278;2023-04-30T07:58:07;102491.78;;;9.84;100.00
5996;BME280;3026;53.612;7.278;2023-04-30T08:00:35;102494.41;;;9.97;100.00
5996;BME280;3026;53.612;7.278;2023-04-30T08:03:02;102494.41;;;9.97;100.00
5996;BME280;3026;53.612;7.278;2023-04-30T08:05:29;102493.13;;;10.01;100.00
5996;BME280;3026;53.612;7.278;2023-04-30T08:07:56;102489.38;;;10.13;100.00
5996;BME280;3026;53.612;7.278;2023-04-30T08:10:23;102490.09;;;10.26;100.00
5996;BME280;3026;53.612;7.278;2023-04-30T08:12:50;102497.44;;;10.46;100.00
5996;BME280;3026;53.612;7.278;2023-04-30T08:15:18;102492.38;;;10.63;100.00
5996;BME280;3026;53.612;7.278;2023-04-30T08:17:47;102493.78;;;10.78;100.00
5996;BME280;3026;53.612;7.278;2023-04-30T08:20:14;102502.22;;;10.75;100.00
5996;BME280;3026;53.612;7.278;2023-04-30T08:22:41;102499.63;;;10.73;100.00
5996;BME280;3026;53.612;7.278;2023-04-30T08:25:09;102502.50;;;10.72;100.00
5996;BME280;3026;53.612;7.278;2023-04-30T08:27:36;102507.69;;;10.75;100.00
5996;BME280;3026;53.612;7.278;2023-04-30T08:30:04;102504.88;;;10.86;100.00
5996;BME280;3026;53.612;7.278;2023-04-30T08:32:33;102502.28;;;10.85;100.00
5996;BME280;3026;53.612;7.278;2023-04-30T08:35:01;102503.63;;;10.90;100.00
5996;BME280;3026;53.612;7.278;2023-04-30T08:37:28;102504.56;;;11.00;100.00
5996;BME280;3026;53.612;7.278;2023-04-30T08:39:55;102504.88;;;11.07;100.00
5996;BME280;3026;53.612;7.278;2023-04-30T08:42:25;102511.38;;;11.16;100.00
5996;BME280;3026;53.612;7.278;2023-04-30T08:44:54;102498.19;;;11.21;100.00
5996;BME280;3026;53.612;7.278;2023-04-30T08:47:21;102493.00;;;11.18;100.00
5996;BME280;3026;53.612;7.278;2023-04-30T08:49:49;102497.72;;;11.16;100.00
5996;BME280;3026;53.612;7.278;2023-04-30T08:52:18;102502.78;;;11.20;100.00
5996;BME280;3026;53.612;7.278;2023-04-30T08:54:46;102502.25;;;11.26;100.00
5996;BME280;3026;53.612;7.278;2023-04-30T08:57:13;102487.97;;;11.53;100.00
5996;BME280;3026;53.612;7.278;2023-04-30T08:59:40;102494.03;;;11.66;100.00
5996;BME280;3026;53.612;7.278;2023-04-30T09:02:07;102492.97;;;11.88;100.00
5996;BME280;3026;53.612;7.278;2023-04-30T09:04:34;102492.56;;;11.93;100.00
5996;BME280;3026;53.612;7.278;2023-04-30T09:07:01;102501.91;;;12.00;100.00
5996;BME280;3026;53.612;7.278;2023-04-30T09:09:36;102506.25;;;12.12;100.00
5996;BME280;3026;53.612;7.278;2023-04-30T09:12:11;102501.06;;;12.57;100.00
5996;BME280;3026;53.612;7.278;2023-04-30T09:14:39;102502.44;;;13.00;100.00
5996;BME280;3026;53.612;7.278;2023-04-30T09:17:07;102504.41;;;13.27;100.00
5996;BME280;3026;53.612;7.278;2023-04-30T09:19:34;102499.22;;;13.24;100.00
5996;BME280;3026;53.612;7.278;2023-04-30T09:22:21;102497.69;;;13.49;100.00
5996;BME280;3026;53.612;7.278;2023-04-30T09:24:50;102496.91;;;13.84;100.00
5996;BME280;3026;53.612;7.278;2023-04-30T09:27:20;102497.00;;;13.65;100.00
5996;BME280;3026;53.612;7.278;2023-04-30T09:29:48;102494.69;;;13.70;100.00
5996;BME280;3026;53.612;7.278;2023-04-30T09:32:14;102486.84;;;13.75;100.00
5996;BME280;3026;53.612;7.278;2023-04-30T09:34:41;102486.97;;;13.83;100.00
5996;BME280;3026;53.612;7.278;2023-04-30T09:37:08;102484.22;;;13.83;100.00
5996;BME280;3026;53.612;7.278;2023-04-30T09:39:46;102478.28;;;14.06;100.00
5996;BME280;3026;53.612;7.278;2023-04-30T09:42:15;102470.94;;;14.24;100.00
5996;BME280;3026;53.612;7.278;2023-04-30T09:44:42;102482.53;;;14.18;100.00
5996;BME280;3026;53.612;7.278;2023-04-30T09:47:13;102477.41;;;14.58;100.00
5996;BME280;3026;53.612;7.278;2023-04-30T09:49:41;102463.53;;;14.42;100.00
5996;BME280;3026;53.612;7.278;2023-04-30T09:52:10;102472.09;;;14.39;100.00
5996;BME280;3026;53.612;7.278;2023-04-30T09:54:37;102466.19;;;14.70;100.00
5996;BME280;3026;53.612;7.278;2023-04-30T09:57:04;102472.28;;;14.81;100.00
5996;BME280;3026;53.612;7.278;2023-04-30T09:59:37;102479.66;;;14.81;100.00
5996;BME280;3026;53.612;7.278;2023-04-30T10:02:05;102468.78;;;14.97;100.00
5996;BME280;3026;53.612;7.278;2023-04-30T10:04:34;102472.97;;;15.09;100.00
5996;BME280;3026;53.612;7.278;2023-04-30T10:07:03;102464.81;;;15.17;100.00
5996;BME280;3026;53.612;7.278;2023-04-30T10:09:38;102469.97;;;15.21;100.00
5996;BME280;3026;53.612;7.278;2023-04-30T10:12:12;102470.38;;;15.34;100.00
5996;BME280;3026;53.612;7.278;2023-04-30T10:14:51;102463.31;;;15.73;100.00
5996;BME280;3026;53.612;7.278;2023-04-30T10:17:22;102468.50;;;15.85;100.00
5996;BME280;3026;53.612;7.278;2023-04-30T10:19:56;102460.00;;;16.12;100.00
5996;BME280;3026;53.612;7.278;2023-04-30T10:22:24;102457.56;;;16.17;100.00
5996;BME280;3026;53.612;7.278;2023-04-30T10:24:52;102459.84;;;16.22;100.00
5996;BME280;3026;53.612;7.278;2023-04-30T10:27:19;102454.13;;;16.15;100.00
5996;BME280;3026;53.612;7.278;2023-04-30T10:29:48;102448.81;;;16.54;100.00
5996;BME280;3026;53.612;7.278;2023-04-30T10:32:16;102459.66;;;16.48;100.00
5996;BME280;3026;53.612;7.278;2023-04-30T10:34:50;102455.72;;;16.58;100.00
5996;BME280;3026;53.612;7.278;2023-04-30T10:37:23;102458.66;;;16.73;98.38
5996;BME280;3026;53.612;7.278;2023-04-30T10:39:50;102454.66;;;16.84;97.78
5996;BME280;3026;53.612;7.278;2023-04-30T10:42:17;102453.81;;;16.91;96.28
5996;BME280;3026;53.612;7.278;2023-04-30T10:44:44;102459.66;;;16.64;94.61
5996;BME280;3026;53.612;7.278;2023-04-30T10:47:12;102455.56;;;16.68;94.60
5996;BME280;3026;53.612;7.278;2023-04-30T10:49:44;102450.69;;;16.95;95.32
5996;BME280;3026;53.612;7.278;2023-04-30T10:52:12;102450.31;;;17.14;94.80
5996;BME280;3026;53.612;7.278;2023-04-30T10:54:40;102448.44;;;17.45;95.60
5996;BME280;3026;53.612;7.278;2023-04-30T10:57:16;102446.78;;;17.67;93.41
5996;BME280;3026;53.612;7.278;2023-04-30T10:59:51;102442.50;;;17.65;91.14
5996;BME280;3026;53.612;7.278;2023-04-30T11:02:19;102437.94;;;17.49;89.94
5996;BME280;3026;53.612;7.278;2023-04-30T11:05:07;102437.78;;;17.42;90.46
5996;BME280;3026;53.612;7.278;2023-04-30T11:07:34;102438.84;;;17.33;90.22
5996;BME280;3026;53.612;7.278;2023-04-30T11:10:02;102427.72;;;17.10;90.01
5996;BME280;3026;53.612;7.278;2023-04-30T11:12:29;102429.31;;;16.97;89.34
5996;BME280;3026;53.612;7.278;2023-04-30T11:14:59;102430.00;;;16.99;88.29
5996;BME280;3026;53.612;7.278;2023-04-30T11:17:28;102424.78;;;17.12;87.71
5996;BME280;3026;53.612;7.278;2023-04-30T11:19:58;102422.88;;;17.20;87.11
5996;BME280;3026;53.612;7.278;2023-04-30T11:22:26;102422.38;;;17.17;87.01
5996;BME280;3026;53.612;7.278;2023-04-30T11:25:02;102414.72;;;17.35;86.70
5996;BME280;3026;53.612;7.278;2023-04-30T11:27:31;102416.09;;;17.39;87.10
5996;BME280;3026;53.612;7.278;2023-04-30T11:30:00;102415.00;;;17.48;86.75
5996;BME280;3026;53.612;7.278;2023-04-30T11:32:33;102398.00;;;17.68;87.00
5996;BME280;3026;53.612;7.278;2023-04-30T11:35:00;102409.56;;;17.94;85.55
5996;BME280;3026;53.612;7.278;2023-04-30T11:37:32;102403.94;;;18.11;85.24
5996;BME280;3026;53.612;7.278;2023-04-30T11:40:01;102399.19;;;18.42;85.17
5996;BME280;3026;53.612;7.278;2023-04-30T11:42:29;102393.09;;;18.70;84.25
5996;BME280;3026;53.612;7.278;2023-04-30T11:45:03;102392.84;;;18.56;83.43
5996;BME280;3026;53.612;7.278;2023-04-30T11:47:39;102388.59;;;18.69;84.45
5996;BME280;3026;53.612;7.278;2023-04-30T11:50:07;102384.22;;;18.74;83.84
5996;BME280;3026;53.612;7.278;2023-04-30T11:52:34;102380.91;;;18.79;81.72
5996;BME280;3026;53.612;7.278;2023-04-30T11:55:05;102378.41;;;18.84;82.07
5996;BME280;3026;53.612;7.278;2023-04-30T11:57:40;102373.25;;;18.95;81.95
5996;BME280;3026;53.612;7.278;2023-04-30T12:00:11;102383.53;;;18.87;82.11
5996;BME280;3026;53.612;7.278;2023-04-30T12:02:40;102385.84;;;18.83;81.69
5996;BME280;3026;53.612;7.278;2023-04-30T12:05:14;102383.66;;;18.79;80.90
5996;BME280;3026;53.612;7.278;2023-04-30T12:07:49;102389.19;;;18.79;80.71
5996;BME280;3026;53.612;7.278;2023-04-30T12:10:18;102392.16;;;18.92;80.01
5996;BME280;3026;53.612;7.278;2023-04-30T12:12:46;102385.22;;;18.58;79.41
5996;BME280;3026;53.612;7.278;2023-04-30T12:15:14;102380.72;;;18.43;80.37
5996;BME280;3026;53.612;7.278;2023-04-30T12:17:43;102375.97;;;18.14;79.87
5996;BME280;3026;53.612;7.278;2023-04-30T12:20:12;102377.59;;;17.85;80.73
5996;BME280;3026;53.612;7.278;2023-04-30T12:22:39;102368.63;;;17.83;81.92
5996;BME280;3026;53.612;7.278;2023-04-30T12:25:08;102372.53;;;17.89;82.43
5996;BME280;3026;53.612;7.278;2023-04-30T12:27:38;102365.53;;;17.78;81.34
5996;BME280;3026;53.612;7.278;2023-04-30T12:30:07;102356.97;;;17.73;81.87
5996;BME280;3026;53.612;7.278;2023-04-30T12:32:41;102351.69;;;17.86;81.81
5996;BME280;3026;53.612;7.278;2023-04-30T12:35:13;102351.69;;;18.09;81.74
5996;BME280;3026;53.612;7.278;2023-04-30T12:37:42;102345.31;;;18.08;81.46
5996;BME280;3026;53.612;7.278;2023-04-30T12:40:11;102347.25;;;18.23;82.70
5996;BME280;3026;53.612;7.278;2023-04-30T12:42:38;102343.25;;;18.40;81.86
5996;BME280;3026;53.612;7.278;2023-04-30T12:45:06;102342.34;;;18.48;82.35
5996;BME280;3026;53.612;7.278;2023-04-30T12:47:37;102338.78;;;18.77;81.89
5996;BME280;3026;53.612;7.278;2023-04-30T12:50:10;102340.19;;;19.02;81.50
5996;BME280;3026;53.612;7.278;2023-04-30T12:52:38;102341.31;;;19.22;80.92
5996;BME280;3026;53.612;7.278;2023-04-30T12:55:15;102343.13;;;19.15;79.50
5996;BME280;3026;53.612;7.278;2023-04-30T12:58:03;102335.03;;;19.14;79.39
5996;BME280;3026;53.612;7.278;2023-04-30T13:00:42;102331.28;;;19.21;79.59
5996;BME280;3026;53.612;7.278;2023-04-30T13:03:09;102330.19;;;19.01;79.41
5996;BME280;3026;53.612;7.278;2023-04-30T13:05:38;102324.84;;;18.85;78.75
5996;BME280;3026;53.612;7.278;2023-04-30T13:08:05;102328.25;;;18.57;77.97
5996;BME280;3026;53.612;7.278;2023-04-30T13:10:32;102323.38;;;18.30;78.18
5996;BME280;3026;53.612;7.278;2023-04-30T13:12:59;102326.66;;;18.11;78.15
5996;BME280;3026;53.612;7.278;2023-04-30T13:15:26;102317.72;;;18.08;79.59
5996;BME280;3026;53.612;7.278;2023-04-30T13:17:53;102311.06;;;18.18;79.87
5996;BME280;3026;53.612;7.278;2023-04-30T13:20:20;102304.00;;;18.15;79.97